createdAt,value
2023-05-23T00:01:55.445Z,18.93
2023-05-23T00:04:29.489Z,18.67
2023-05-23T00:06:57.518Z,19.72
2023-05-23T00:09:25.926Z,20.66
2023-05-23T00:11:53.807Z,21.18
2023-05-23T00:14:26.695Z,21.56
2023-05-23T00:16:55.356Z,21.40
2023-05-23T00:19:23.627Z,20.19
2023-05-23T00:21:58.048Z,19.24
2023-05-23T00:24:29.919Z,18.79
2023-05-23T00:27:01.446Z,19.63
2023-05-23T00:29:30.217Z,20.52
2023-05-23T00:31:58.736Z,21.04
2023-05-23T00:34:28.869Z,21.37
2023-05-23T00:36:58.319Z,21.31
2023-05-23T00:39:26.741Z,20.39
2023-05-23T00:41:59.661Z,19.48
2023-05-23T00:44:29.908Z,18.74
2023-05-23T00:47:01.739Z,18.50
2023-05-23T00:49:31.079Z,19.39
2023-05-23T00:52:01.045Z,20.13
2023-05-23T00:54:33.145Z,20.58
2023-05-23T00:57:02.005Z,20.88
2023-05-23T00:59:31.284Z,21.15
2023-05-23T01:02:01.355Z,21.38
2023-05-23T01:04:34.433Z,21.08
2023-05-23T01:07:07.132Z,19.96
2023-05-23T01:09:37.990Z,18.95
2023-05-23T01:12:26.531Z,18.63
2023-05-23T01:15:09.196Z,19.61
2023-05-23T01:18:04.685Z,20.48
2023-05-23T01:20:45.596Z,21.05
2023-05-23T01:24:03.728Z,21.45
2023-05-23T01:26:53.010Z,21.69
2023-05-23T01:29:55.127Z,20.85
2023-05-23T01:32:27.333Z,19.65
2023-05-23T01:34:57.475Z,19.14
2023-05-23T01:37:25.645Z,19.84
2023-05-23T01:39:54.049Z,20.59
2023-05-23T01:42:22.433Z,21.11
2023-05-23T01:44:50.575Z,21.50
2023-05-23T01:47:21.061Z,21.59
2023-05-23T01:49:51.033Z,20.73
2023-05-23T01:52:21.433Z,19.77
2023-05-23T01:54:51.097Z,19.02
2023-05-23T01:57:21.065Z,18.76
2023-05-23T01:59:49.696Z,19.67
2023-05-23T02:02:20.092Z,20.51
2023-05-23T02:04:50.178Z,21.03
2023-05-23T02:07:23.581Z,21.37
2023-05-23T02:09:52.325Z,21.39
2023-05-23T02:12:20.945Z,20.46
2023-05-23T02:14:52.438Z,19.49
2023-05-23T02:17:25.885Z,19.09
2023-05-23T02:19:54.003Z,19.87
2023-05-23T02:22:26.863Z,20.56
2023-05-23T02:24:54.894Z,21.04
2023-05-23T02:27:23.606Z,21.34
2023-05-23T02:29:54.725Z,21.35
2023-05-23T02:32:23.719Z,20.57
2023-05-23T02:34:53.324Z,19.55
2023-05-23T02:37:22.520Z,18.99
2023-05-23T02:39:50.376Z,19.65
2023-05-23T02:42:20.255Z,20.42
2023-05-23T02:44:51.708Z,20.84
2023-05-23T02:47:20.292Z,21.08
2023-05-23T02:49:49.822Z,21.30
2023-05-23T02:52:21.299Z,21.24
2023-05-23T02:54:49.163Z,20.26
2023-05-23T02:57:17.158Z,19.28
2023-05-23T02:59:46.128Z,18.78
2023-05-23T03:02:14.061Z,19.55
2023-05-23T03:04:42.439Z,20.28
2023-05-23T03:07:26.892Z,20.77
2023-05-23T03:09:57.722Z,21.17
2023-05-23T03:12:29.820Z,21.44
2023-05-23T03:14:58.402Z,21.64
2023-05-23T03:17:27.156Z,21.78
2023-05-23T03:19:56.436Z,21.62
2023-05-23T03:22:25.669Z,20.61
2023-05-23T03:24:53.553Z,19.58
2023-05-23T03:27:23.554Z,19.15
2023-05-23T03:29:52.389Z,19.87
2023-05-23T03:32:22.936Z,20.72
2023-05-23T03:34:50.876Z,21.29
2023-05-23T03:37:20.509Z,21.68
2023-05-23T03:39:50.979Z,21.72
2023-05-23T03:42:20.459Z,20.75
2023-05-23T03:44:48.379Z,19.75
2023-05-23T03:47:16.454Z,19.32
2023-05-23T03:49:45.685Z,20.21
2023-05-23T03:52:14.183Z,20.61
2023-05-23T03:54:42.575Z,20.50
2023-05-23T03:57:10.702Z,19.13
2023-05-23T03:59:38.765Z,17.87
2023-05-23T04:02:11.749Z,18.06
2023-05-23T04:04:40.263Z,18.42
2023-05-23T04:07:10.213Z,18.53
2023-05-23T04:09:40.338Z,18.56
2023-05-23T04:12:10.444Z,18.84
2023-05-23T04:14:39.511Z,19.03
2023-05-23T04:17:09.559Z,17.89
2023-05-23T04:19:37.977Z,16.92
2023-05-23T04:22:06.066Z,17.34
2023-05-23T04:24:33.987Z,17.59
2023-05-23T04:27:04.569Z,17.56
2023-05-23T04:29:32.368Z,17.69
2023-05-23T04:32:03.054Z,17.38
2023-05-23T04:34:38.226Z,17.16
2023-05-23T04:37:07.593Z,17.28
2023-05-23T04:39:35.751Z,17.45
2023-05-23T04:42:04.299Z,17.37
2023-05-23T04:44:32.119Z,17.38
2023-05-23T04:47:03.259Z,17.31
2023-05-23T04:49:34.304Z,17.41
2023-05-23T04:52:02.221Z,17.66
2023-05-23T04:54:31.651Z,17.57
2023-05-23T04:57:00.824Z,17.68
2023-05-23T04:59:29.084Z,17.95
2023-05-23T05:01:59.375Z,18.32
2023-05-23T05:04:27.422Z,18.49
2023-05-23T05:07:00.146Z,17.90
2023-05-23T05:09:28.123Z,16.84
2023-05-23T05:11:58.401Z,16.29
2023-05-23T05:14:28.063Z,16.82
2023-05-23T05:16:58.463Z,17.65
2023-05-23T05:19:26.566Z,18.27
2023-05-23T05:21:54.519Z,18.76
2023-05-23T05:24:22.747Z,19.15
2023-05-23T05:26:50.964Z,18.96
2023-05-23T05:29:19.306Z,17.87
2023-05-23T05:31:47.300Z,16.77
2023-05-23T05:34:15.355Z,16.47
2023-05-23T05:36:47.060Z,17.24
2023-05-23T05:39:15.733Z,18.11
2023-05-23T05:41:43.798Z,18.19
2023-05-23T05:44:12.115Z,17.31
2023-05-23T05:46:40.570Z,16.86
2023-05-23T05:49:10.310Z,17.34
2023-05-23T05:51:39.545Z,17.78
2023-05-23T05:54:08.160Z,18.19
2023-05-23T05:56:37.552Z,18.24
2023-05-23T05:59:05.431Z,17.35
2023-05-23T06:01:34.979Z,16.42
2023-05-23T06:04:03.611Z,16.36
2023-05-23T06:06:32.837Z,17.19
2023-05-23T06:09:03.741Z,17.79
2023-05-23T06:11:32.546Z,18.14
2023-05-23T06:14:00.561Z,18.08
2023-05-23T06:16:28.644Z,17.09
2023-05-23T06:18:56.886Z,16.46
2023-05-23T06:21:25.479Z,17.01
2023-05-23T06:23:59.115Z,17.68
2023-05-23T06:26:27.745Z,18.01
2023-05-23T06:28:56.780Z,18.04
2023-05-23T06:31:25.434Z,17.14
2023-05-23T06:33:54.573Z,16.26
2023-05-23T06:36:22.412Z,15.92
2023-05-23T06:38:50.750Z,16.76
2023-05-23T06:41:18.917Z,17.60
2023-05-23T06:43:46.733Z,18.18
2023-05-23T06:46:14.641Z,18.38
2023-05-23T06:48:42.902Z,17.37
2023-05-23T06:51:11.630Z,16.32
2023-05-23T06:53:42.330Z,16.35
2023-05-23T06:56:10.593Z,16.89
2023-05-23T06:58:38.858Z,17.20
2023-05-23T07:01:08.110Z,17.68
2023-05-23T07:03:41.328Z,18.20
2023-05-23T07:06:09.304Z,18.61
2023-05-23T07:08:39.493Z,18.46
2023-05-23T07:11:08.415Z,17.42
2023-05-23T07:13:36.686Z,16.42
2023-05-23T07:16:06.062Z,16.04
2023-05-23T07:18:38.452Z,16.84
2023-05-23T07:21:06.912Z,17.50
2023-05-23T07:23:41.198Z,17.95
2023-05-23T07:26:10.397Z,18.15
2023-05-23T07:28:38.253Z,17.37
2023-05-23T07:31:08.184Z,16.58
2023-05-23T07:33:37.199Z,16.83
2023-05-23T07:36:07.950Z,17.53
2023-05-23T07:38:36.025Z,18.03
2023-05-23T07:41:11.484Z,18.21
2023-05-23T07:43:41.135Z,17.38
2023-05-23T07:46:09.266Z,16.41
2023-05-23T07:48:41.514Z,16.12
2023-05-23T07:51:09.518Z,16.92
2023-05-23T07:53:40.240Z,17.51
2023-05-23T07:56:08.445Z,17.97
2023-05-23T07:58:39.123Z,18.44
2023-05-23T08:01:08.164Z,18.46
2023-05-23T08:03:41.103Z,17.61
2023-05-23T08:06:10.071Z,16.49
2023-05-23T08:08:37.949Z,16.46
2023-05-23T08:11:05.841Z,17.21
2023-05-23T08:13:33.736Z,17.91
2023-05-23T08:16:02.282Z,18.36
2023-05-23T08:18:33.941Z,18.01
2023-05-23T08:21:03.465Z,16.91
2023-05-23T08:23:32.149Z,16.38
2023-05-23T08:26:00.418Z,17.03
2023-05-23T08:28:29.038Z,17.66
2023-05-23T08:30:57.931Z,18.13
2023-05-23T08:33:25.790Z,18.43
2023-05-23T08:35:55.274Z,17.82
2023-05-23T08:38:24.210Z,16.79
2023-05-23T08:40:53.025Z,16.71
2023-05-23T08:43:22.365Z,17.32
2023-05-23T08:45:55.414Z,17.74
2023-05-23T08:48:28.317Z,17.84
2023-05-23T08:50:59.581Z,18.31
2023-05-23T08:53:30.324Z,18.77
2023-05-23T08:56:02.740Z,18.89
2023-05-23T08:58:34.535Z,17.84
2023-05-23T09:01:02.753Z,16.81
2023-05-23T09:03:31.785Z,16.64
2023-05-23T09:06:01.423Z,17.49
2023-05-23T09:08:30.619Z,18.14
2023-05-23T09:10:59.054Z,18.43
2023-05-23T09:13:30.322Z,18.50
2023-05-23T09:16:06.897Z,17.70
2023-05-23T09:18:41.901Z,16.94
2023-05-23T09:21:11.699Z,17.52
2023-05-23T09:23:42.905Z,18.13
2023-05-23T09:26:15.682Z,18.50
2023-05-23T09:28:45.419Z,18.80
2023-05-23T09:31:13.529Z,19.07
2023-05-23T09:33:48.416Z,18.82
2023-05-23T09:36:20.190Z,17.68
2023-05-23T09:38:52.772Z,17.01
2023-05-23T09:41:22.326Z,17.73
2023-05-23T09:43:57.700Z,18.57
2023-05-23T09:46:31.081Z,19.08
2023-05-23T09:49:00.438Z,19.46
2023-05-23T09:51:29.531Z,19.83
2023-05-23T09:53:58.734Z,19.88
2023-05-23T09:56:29.113Z,19.06
2023-05-23T09:58:59.419Z,18.10
2023-05-23T10:01:30.577Z,17.36
2023-05-23T10:04:00.651Z,17.26
2023-05-23T10:06:52.289Z,18.36
2023-05-23T10:09:25.355Z,19.47
2023-05-23T10:12:31.195Z,19.90
2023-05-23T10:15:08.363Z,19.12
2023-05-23T10:18:14.054Z,18.18
2023-05-23T10:20:49.396Z,17.89
2023-05-23T10:23:18.971Z,19.00
2023-05-23T10:25:48.793Z,19.72
2023-05-23T10:28:19.395Z,20.13
2023-05-23T10:30:48.684Z,20.20
2023-05-23T10:33:18.443Z,19.39
2023-05-23T10:36:12.425Z,18.52
2023-05-23T10:39:10.186Z,17.72
2023-05-23T10:41:55.390Z,18.11
2023-05-23T10:44:33.607Z,19.09
2023-05-23T10:47:05.314Z,19.76
2023-05-23T10:49:44.522Z,19.97
2023-05-23T10:52:17.578Z,19.04
2023-05-23T10:54:51.677Z,18.03
2023-05-23T10:57:23.128Z,17.72
2023-05-23T10:59:54.009Z,18.73
2023-05-23T11:02:30.528Z,19.60
2023-05-23T11:05:24.542Z,19.90
2023-05-23T11:08:18.190Z,18.94
2023-05-23T11:11:03.379Z,18.32
2023-05-23T11:13:53.838Z,18.87
2023-05-23T11:16:36.878Z,19.66
2023-05-23T11:19:28.568Z,19.80
2023-05-23T11:22:09.500Z,19.13
2023-05-23T11:24:55.862Z,18.21
2023-05-23T11:27:35.983Z,18.24
2023-05-23T11:30:18.314Z,19.05
2023-05-23T11:32:56.288Z,19.77
2023-05-23T11:35:25.220Z,20.00
2023-05-23T11:37:53.720Z,19.23
2023-05-23T11:40:41.840Z,18.44
2023-05-23T11:43:19.986Z,18.40
2023-05-23T11:45:48.325Z,19.59
2023-05-23T11:48:18.601Z,20.58
2023-05-23T11:50:54.689Z,20.92
2023-05-23T11:53:27.621Z,20.23
2023-05-23T11:56:00.239Z,19.53
2023-05-23T11:58:33.311Z,19.03
2023-05-23T12:01:05.189Z,19.30
2023-05-23T12:03:48.201Z,20.59
2023-05-23T12:06:20.896Z,21.13
2023-05-23T12:08:49.108Z,20.54
2023-05-23T12:11:18.742Z,19.81
2023-05-23T12:13:47.502Z,19.12
2023-05-23T12:16:19.216Z,18.69
2023-05-23T12:18:48.055Z,18.35
2023-05-23T12:21:18.166Z,18.15
2023-05-23T12:23:47.503Z,17.90
2023-05-23T12:26:15.402Z,17.72
2023-05-23T12:28:45.755Z,17.84
2023-05-23T12:31:23.567Z,19.09
2023-05-23T12:33:53.762Z,20.29
2023-05-23T12:36:27.964Z,20.15
2023-05-23T12:39:05.113Z,19.49
2023-05-23T12:41:36.496Z,18.74
2023-05-23T12:44:06.604Z,18.42
2023-05-23T12:46:34.765Z,18.26
2023-05-23T12:49:03.665Z,18.11
2023-05-23T12:51:32.949Z,18.21
2023-05-23T12:54:02.671Z,19.34
2023-05-23T12:56:31.364Z,19.80
2023-05-23T12:58:59.465Z,19.41
2023-05-23T13:01:30.109Z,19.02
2023-05-23T13:03:58.674Z,18.73
2023-05-23T13:06:28.275Z,18.59
2023-05-23T13:08:58.128Z,18.48
2023-05-23T13:11:27.230Z,18.41
2023-05-23T13:13:55.582Z,18.39
2023-05-23T13:16:23.583Z,18.43
2023-05-23T13:18:53.132Z,18.54
2023-05-23T13:21:23.221Z,18.62
2023-05-23T13:23:51.087Z,18.65
2023-05-23T13:26:20.550Z,18.61
2023-05-23T13:28:50.745Z,18.54
2023-05-23T13:31:19.049Z,18.49
2023-05-23T13:33:47.530Z,18.44
2023-05-23T13:36:17.494Z,18.39
2023-05-23T13:38:45.393Z,18.34
2023-05-23T13:41:15.020Z,18.28
2023-05-23T13:43:43.274Z,18.21
2023-05-23T13:46:12.664Z,18.17
2023-05-23T13:48:41.584Z,18.18
2023-05-23T13:51:13.468Z,18.18
2023-05-23T13:53:41.394Z,18.16
2023-05-23T13:56:10.285Z,18.18
2023-05-23T13:58:38.333Z,18.28
2023-05-23T14:01:06.358Z,18.36
2023-05-23T14:03:37.830Z,18.37
2023-05-23T14:06:06.142Z,18.35
2023-05-23T14:08:36.023Z,18.34
2023-05-23T14:11:03.995Z,18.36
2023-05-23T14:13:32.913Z,18.39
2023-05-23T14:16:00.921Z,18.53
2023-05-23T14:18:29.221Z,18.75
2023-05-23T14:20:58.156Z,19.01
2023-05-23T14:23:30.251Z,19.20
2023-05-23T14:25:59.142Z,19.37
2023-05-23T14:28:33.185Z,19.54
2023-05-23T14:31:01.649Z,19.64
2023-05-23T14:33:29.981Z,19.72
2023-05-23T14:35:59.870Z,19.77
2023-05-23T14:38:29.516Z,19.77
2023-05-23T14:40:59.068Z,19.72
2023-05-23T14:43:28.454Z,19.66
2023-05-23T14:45:59.578Z,19.66
2023-05-23T14:48:27.488Z,19.64
2023-05-23T14:50:55.701Z,19.58
2023-05-23T14:53:28.216Z,19.49
2023-05-23T14:55:57.062Z,19.42
2023-05-23T14:58:35.384Z,19.39
2023-05-23T15:01:04.403Z,19.33
2023-05-23T15:03:34.405Z,19.24
2023-05-23T15:06:05.894Z,19.11
2023-05-23T15:08:34.524Z,18.99
2023-05-23T15:11:11.684Z,18.91
2023-05-23T15:13:39.686Z,18.88
2023-05-23T15:16:07.589Z,18.84
2023-05-23T15:18:41.259Z,18.84
2023-05-23T15:21:12.452Z,18.83
2023-05-23T15:23:48.149Z,18.79
2023-05-23T15:26:16.859Z,18.75
2023-05-23T15:28:46.930Z,18.63
2023-05-23T15:31:15.182Z,18.46
2023-05-23T15:33:43.538Z,18.38
2023-05-23T15:36:13.352Z,18.30
2023-05-23T15:38:43.949Z,18.19
2023-05-23T15:41:11.931Z,18.07
2023-05-23T15:43:40.093Z,17.96
2023-05-23T15:46:10.858Z,17.89
2023-05-23T15:48:40.429Z,17.85
2023-05-23T15:51:08.900Z,17.90
2023-05-23T15:53:47.870Z,18.02
2023-05-23T15:56:26.546Z,18.16
2023-05-23T15:58:54.460Z,18.28
2023-05-23T16:01:22.680Z,18.50
2023-05-23T16:03:50.828Z,18.79
2023-05-23T16:06:19.378Z,19.07
2023-05-23T16:08:47.405Z,19.30
2023-05-23T16:11:15.809Z,19.48
2023-05-23T16:13:44.065Z,19.60
2023-05-23T16:16:12.641Z,19.65
2023-05-23T16:18:41.291Z,19.59
2023-05-23T16:21:09.995Z,19.46
2023-05-23T16:23:39.940Z,19.34
2023-05-23T16:26:08.494Z,19.20
2023-05-23T16:28:37.013Z,19.17
2023-05-23T16:31:04.873Z,19.19
2023-05-23T16:33:34.133Z,19.17
2023-05-23T16:36:02.136Z,19.09
2023-05-23T16:38:33.781Z,18.88
2023-05-23T16:41:02.048Z,18.65
2023-05-23T16:43:31.938Z,18.58
2023-05-23T16:46:00.559Z,18.64
2023-05-23T16:48:31.267Z,18.73
2023-05-23T16:51:02.702Z,18.90
2023-05-23T16:53:34.861Z,19.09
2023-05-23T16:56:04.461Z,18.98
2023-05-23T16:58:36.139Z,18.89
2023-05-23T17:01:06.288Z,18.75
2023-05-23T17:03:34.784Z,18.63
2023-05-23T17:06:03.361Z,18.53
2023-05-23T17:08:31.276Z,18.49
2023-05-23T17:11:03.561Z,18.53
2023-05-23T17:13:32.902Z,18.62
2023-05-23T17:16:01.979Z,18.51
2023-05-23T17:18:30.415Z,18.43
2023-05-23T17:21:01.728Z,18.28
2023-05-23T17:23:35.245Z,18.18
2023-05-23T17:26:04.326Z,18.13
2023-05-23T17:28:32.508Z,18.01
2023-05-23T17:31:04.405Z,17.97
2023-05-23T17:33:33.653Z,17.77
2023-05-23T17:36:02.517Z,17.60
2023-05-23T17:38:30.774Z,17.52
2023-05-23T17:41:05.766Z,17.41
2023-05-23T17:43:36.090Z,17.30
2023-05-23T17:46:06.614Z,17.22
2023-05-23T17:48:47.092Z,17.15
2023-05-23T17:51:16.879Z,17.09
2023-05-23T17:53:48.385Z,16.99
2023-05-23T17:56:16.673Z,16.87
2023-05-23T17:58:45.089Z,16.80
2023-05-23T18:01:14.681Z,16.74
2023-05-23T18:03:44.899Z,16.67
2023-05-23T18:06:12.806Z,16.62
2023-05-23T18:08:41.983Z,16.56
2023-05-23T18:11:10.315Z,16.45
2023-05-23T18:13:38.088Z,16.35
2023-05-23T18:16:07.373Z,16.28
2023-05-23T18:18:37.083Z,16.20
2023-05-23T18:21:07.330Z,16.14
2023-05-23T18:23:36.728Z,16.11
2023-05-23T18:26:05.060Z,16.02
2023-05-23T18:28:34.086Z,15.95
2023-05-23T18:31:02.363Z,15.91
2023-05-23T18:33:30.533Z,15.88
2023-05-23T18:35:58.479Z,15.83
2023-05-23T18:38:26.687Z,15.75
2023-05-23T18:40:57.120Z,15.68
2023-05-23T18:43:25.000Z,15.64
2023-05-23T18:45:53.548Z,15.61
2023-05-23T18:48:22.439Z,15.56
2023-05-23T18:50:50.740Z,15.55
2023-05-23T18:53:20.451Z,15.48
2023-05-23T18:55:49.644Z,15.41
2023-05-23T18:58:19.566Z,15.36
2023-05-23T19:00:49.203Z,15.33
2023-05-23T19:03:17.742Z,15.28
2023-05-23T19:05:45.975Z,15.20
2023-05-23T19:08:13.869Z,15.15
2023-05-23T19:10:42.074Z,15.12
2023-05-23T19:13:10.761Z,15.13
2023-05-23T19:15:38.973Z,15.98
2023-05-23T19:18:07.820Z,17.45
2023-05-23T19:20:36.845Z,18.16
2023-05-23T19:23:05.297Z,17.74
2023-05-23T19:25:33.233Z,17.14
2023-05-23T19:28:01.250Z,16.70
2023-05-23T19:30:29.471Z,16.37
2023-05-23T19:33:01.452Z,16.13
2023-05-23T19:35:32.176Z,15.94
2023-05-23T19:38:01.358Z,15.77
2023-05-23T19:40:29.410Z,15.62
2023-05-23T19:42:57.384Z,15.49
2023-05-23T19:45:26.043Z,15.39
2023-05-23T19:47:54.674Z,15.32
2023-05-23T19:50:22.650Z,15.25
2023-05-23T19:52:50.879Z,15.17
2023-05-23T19:55:18.907Z,15.09
2023-05-23T19:57:46.898Z,15.04
2023-05-23T20:00:15.414Z,14.98
2023-05-23T20:02:44.724Z,15.24
2023-05-23T20:05:15.467Z,16.60
2023-05-23T20:07:43.282Z,17.84
2023-05-23T20:10:11.611Z,17.81
2023-05-23T20:12:39.658Z,17.04
2023-05-23T20:15:08.376Z,16.54
2023-05-23T20:17:37.260Z,16.12
2023-05-23T20:20:06.453Z,15.78
2023-05-23T20:22:34.696Z,15.52
2023-05-23T20:25:03.140Z,15.30
2023-05-23T20:27:32.277Z,15.48
2023-05-23T20:30:01.206Z,16.71
2023-05-23T20:32:30.869Z,17.59
2023-05-23T20:34:58.774Z,17.20
2023-05-23T20:37:28.300Z,16.58
2023-05-23T20:39:56.812Z,16.11
2023-05-23T20:42:26.718Z,15.79
2023-05-23T20:44:57.076Z,15.53
2023-05-23T20:47:25.791Z,15.31
2023-05-23T20:49:53.938Z,15.14
2023-05-23T20:52:23.018Z,15.00
2023-05-23T20:54:52.553Z,15.50
2023-05-23T20:57:24.023Z,16.84
2023-05-23T20:59:52.703Z,17.99
2023-05-23T21:02:22.278Z,18.38
2023-05-23T21:04:50.783Z,17.70
2023-05-23T21:07:18.796Z,16.99
2023-05-23T21:09:47.164Z,16.38
2023-05-23T21:12:15.467Z,15.94
2023-05-23T21:14:44.482Z,15.61
2023-05-23T21:17:12.645Z,15.37
2023-05-23T21:19:40.646Z,15.49
2023-05-23T21:22:10.625Z,16.70
2023-05-23T21:24:38.824Z,17.69
2023-05-23T21:27:07.840Z,17.49
2023-05-23T21:29:35.682Z,16.67
2023-05-23T21:32:04.737Z,15.98
2023-05-23T21:34:33.061Z,15.47
2023-05-23T21:37:01.101Z,15.72
2023-05-23T21:39:39.248Z,16.81
2023-05-23T21:42:15.691Z,17.36
2023-05-23T21:44:43.678Z,16.62
2023-05-23T21:47:11.971Z,15.78
2023-05-23T21:49:40.589Z,15.21
2023-05-23T21:52:11.874Z,15.13
2023-05-23T21:54:39.824Z,16.22
2023-05-23T21:57:07.748Z,17.49
2023-05-23T21:59:35.621Z,18.00
2023-05-23T22:02:03.952Z,17.28
2023-05-23T22:04:33.066Z,16.41
2023-05-23T22:07:02.914Z,15.73
2023-05-23T22:09:30.799Z,15.20
2023-05-23T22:11:58.871Z,15.14
2023-05-23T22:14:27.558Z,16.20
2023-05-23T22:16:56.633Z,17.14
2023-05-23T22:19:26.433Z,17.21
2023-05-23T22:21:56.599Z,16.47
2023-05-23T22:24:25.575Z,15.72
2023-05-23T22:26:53.917Z,15.18
2023-05-23T22:29:22.450Z,15.66
2023-05-23T22:31:50.594Z,16.72
2023-05-23T22:34:18.751Z,17.04
2023-05-23T22:36:47.928Z,16.37
2023-05-23T22:39:16.622Z,15.66
2023-05-23T22:41:44.961Z,15.10
2023-05-23T22:44:12.836Z,15.07
2023-05-23T22:46:43.904Z,16.27
2023-05-23T22:49:12.157Z,16.87
2023-05-23T22:51:40.862Z,16.29
2023-05-23T22:54:08.714Z,15.56
2023-05-23T22:56:36.892Z,15.02
2023-05-23T22:59:04.830Z,14.61
2023-05-23T23:01:33.794Z,14.63
2023-05-23T23:04:01.726Z,15.79
2023-05-23T23:06:29.646Z,16.71
2023-05-23T23:08:59.191Z,16.44
2023-05-23T23:11:27.281Z,15.66
2023-05-23T23:13:55.162Z,15.02
2023-05-23T23:16:23.353Z,15.11
2023-05-23T23:18:52.308Z,16.16
2023-05-23T23:21:21.126Z,16.79
2023-05-23T23:23:50.099Z,16.21
2023-05-23T23:26:18.070Z,15.42
2023-05-23T23:28:48.509Z,14.87
2023-05-23T23:31:18.177Z,15.49
2023-05-23T23:33:46.482Z,16.55
2023-05-23T23:36:15.909Z,16.97
2023-05-23T23:38:46.486Z,16.31
2023-05-23T23:41:14.654Z,15.44
2023-05-23T23:43:42.482Z,14.81
2023-05-23T23:46:10.767Z,14.72
2023-05-23T23:48:38.938Z,15.83
2023-05-23T23:51:07.034Z,16.83
2023-05-23T23:53:34.925Z,16.83
2023-05-23T23:56:03.237Z,15.97
2023-05-23T23:58:31.625Z,15.22
